Time;durP1;ratioP1;P1;durP2;ratioP2;P2;SDS_P1;SDS_P2;PMS_P1;PMS_P2;Temp;Humidity;BMP_temperature;BMP_pressure;BME280_temperature;BME280_humidity;BME280_pressure;Samples;Min_cycle;Max_cycle;Signal;HPM_P1;HPM_P2
2021/12/22 00:00:17;;;;;;;96.78;32.05;;;;;;;-2.72;93.90;101840.09;4953511;59;1140714;-77
2021/12/22 00:05:30;;;;;;;83.73;28.80;;;;;;;-2.63;94.31;101837.07;4953828;59;1139032;-83
2021/12/22 00:10:36;;;;;;;59.63;22.23;;;;;;;-2.52;94.60;101840.48;4954099;59;1139110;-78
2021/12/22 00:15:42;;;;;;;59.43;21.20;;;;;;;-2.49;94.19;101838.33;4953852;59;1139024;-77
2021/12/22 00:20:48;;;;;;;54.43;18.93;;;;;;;-2.59;93.37;101837.91;4953927;59;1139063;-82
2021/12/22 00:25:54;;;;;;;73.63;23.73;;;;;;;-2.73;93.08;101839.23;4954015;59;1139503;-80
2021/12/22 00:31:09;;;;;;;61.40;20.47;;;;;;;-2.84;93.23;101846.16;4947878;59;1139004;-82
2021/12/22 00:36:08;;;;;;;61.83;21.07;;;;;;;-2.97;93.21;101850.50;4941909;59;1137056;-82
2021/12/22 00:41:15;;;;;;;74.00;21.67;;;;;;;-3.03;93.40;101853.51;4943092;59;1141324;-79
2021/12/22 00:46:21;;;;;;;76.50;23.07;;;;;;;-3.08;93.64;101852.67;4935980;58;1141185;-76
2021/12/22 00:51:27;;;;;;;129.17;30.90;;;;;;;-3.04;94.34;101855.23;4903692;59;1141281;-77
2021/12/22 00:56:36;;;;;;;61.37;17.77;;;;;;;-3.03;94.31;101850.92;4827405;60;1143131;-79
2021/12/22 01:01:40;;;;;;;32.67;12.90;;;;;;;-3.06;93.95;101862.16;4903550;59;1141184;-80
2021/12/22 01:06:47;;;;;;;35.30;12.57;;;;;;;-3.11;93.95;101861.72;4827280;60;1141242;-79
2021/12/22 01:11:53;;;;;;;36.50;13.73;;;;;;;-3.21;93.86;101879.81;4849605;60;1141219;-76
2021/12/22 01:17:02;;;;;;;30.37;12.47;;;;;;;-3.28;94.13;101870.77;4906966;59;1141241;-78
2021/12/22 01:27:38;;;;;;;;;;;;;;;-3.32;94.58;101869.89;4911873;59;1141351;-83
2021/12/22 01:32:43;;;;;;;30.07;10.60;;;;;;;-3.37;94.58;101872.93;4834864;60;974749;-76
2021/12/22 01:37:49;;;;;;;30.63;12.43;;;;;;;-3.42;94.59;101875.92;4832219;59;1139208;-80
2021/12/22 01:42:56;;;;;;;32.60;12.10;;;;;;;-3.37;95.31;101881.98;4943981;58;1141181;-82
2021/12/22 01:53:30;;;;;;;29.33;12.17;;;;;;;-3.08;95.70;101872.08;5048026;58;1141062;-82
2021/12/22 01:58:44;;;;;;;32.60;11.73;;;;;;;-2.94;95.86;101864.73;5045063;58;1141206;-78
2021/12/22 02:03:51;;;;;;;52.37;16.57;;;;;;;-2.84;95.77;101862.56;5058384;58;1141170;-78
2021/12/22 02:08:58;;;;;;;43.53;14.03;;;;;;;-2.78;95.24;101865.58;5058271;58;1141176;-76
2021/12/22 02:14:06;;;;;;;40.40;13.53;;;;;;;-3.00;93.19;101872.92;5058327;58;1141150;-81
2021/12/22 02:19:14;;;;;;;40.97;13.87;;;;;;;-3.13;93.67;101871.20;5058226;58;1141390;-76
2021/12/22 02:24:20;;;;;;;52.13;15.17;;;;;;;-3.11;94.26;101869.05;5058266;58;1141163;-86
2021/12/22 02:29:36;;;;;;;49.23;14.90;;;;;;;-3.13;93.88;101858.27;5058256;58;1141077;-79
2021/12/22 02:34:47;;;;;;;60.33;19.67;;;;;;;-3.14;93.78;101858.70;5056053;58;1141077;-81
2021/12/22 02:39:57;;;;;;;90.27;25.57;;;;;;;-3.38;92.42;101869.91;5057534;58;1141026;-82
2021/12/22 02:45:08;;;;;;;42.60;15.90;;;;;;;-3.63;92.33;101882.34;5057465;58;1139197;-82
2021/12/22 02:50:16;;;;;;;78.20;25.30;;;;;;;-3.92;92.52;101886.14;5056090;58;1139095;-81
2021/12/22 02:55:29;;;;;;;80.07;23.37;;;;;;;-4.04;92.98;101888.68;5054832;58;1139037;-82
2021/12/22 03:05:36;;;;;;;51.20;17.87;;;;;;;-4.20;93.17;101892.05;5054781;58;1138975;-82
2021/12/22 03:10:42;;;;;;;138.43;31.07;;;;;;;-4.35;93.17;101898.87;5016233;58;1138960;-75
2021/12/22 03:15:48;;;;;;;82.53;23.50;;;;;;;-4.38;93.48;101897.98;4973829;59;1141453;-81
2021/12/22 03:21:02;;;;;;;83.70;23.67;;;;;;;-4.22;94.94;101889.45;4973964;59;1139165;-76
2021/12/22 03:26:01;;;;;;;56.83;19.40;;;;;;;-4.00;95.22;101890.00;4972613;58;1139097;-77
2021/12/22 03:31:07;;;;;;;55.67;18.50;;;;;;;-3.84;95.37;101883.17;4973863;59;1139064;-85
2021/12/22 03:36:14;;;;;;;63.17;19.33;;;;;;;-3.68;95.01;101895.28;4973803;59;1139332;-75
2021/12/22 03:41:19;;;;;;;51.43;17.97;;;;;;;-3.70;94.18;101892.25;4973764;59;1139049;-75
2021/12/22 03:46:25;;;;;;;60.43;21.30;;;;;;;-3.67;94.45;101895.72;4973879;59;1139403;-78
2021/12/22 03:51:31;;;;;;;48.50;18.37;;;;;;;-3.73;93.49;101902.15;5030513;58;1139098;-78
2021/12/22 03:56:39;;;;;;;40.00;17.53;;;;;;;-3.86;93.06;101906.84;5058531;58;1139091;-80
2021/12/22 04:01:45;;;;;;;44.83;17.57;;;;;;;-4.10;92.47;101906.30;5058458;58;1137254;-79
2021/12/22 04:06:52;;;;;;;55.83;20.80;;;;;;;-4.22;92.75;101905.38;5058350;58;1137024;-80
2021/12/22 04:11:57;;;;;;;43.83;16.47;;;;;;;-4.35;92.82;101910.91;5058614;58;1141346;-76
2021/12/22 04:17:11;;;;;;;285.60;71.43;;;;;;;-4.43;93.10;101912.14;5059107;58;1141340;-76
2021/12/22 04:22:12;;;;;;;248.30;62.80;;;;;;;-4.30;94.47;101905.36;5058005;58;1143426;-83
2021/12/22 04:27:18;;;;;;;114.43;32.17;;;;;;;-4.10;95.12;101910.17;5058490;58;1143160;-77
2021/12/22 04:32:24;;;;;;;707.38;134.55;;;;;;;-4.10;93.89;101908.02;5058351;58;1143232;-81
2021/12/22 04:37:30;;;;;;;112.67;30.43;;;;;;;-4.19;93.95;101906.27;5051229;58;1145426;-81
2021/12/22 04:42:37;;;;;;;68.87;21.97;;;;;;;-4.28;93.87;101907.06;5047358;58;1143299;-77
2021/12/22 04:47:44;;;;;;;51.83;19.70;;;;;;;-4.42;93.96;101911.30;5047915;58;1141086;-79
2021/12/22 04:52:58;;;;;;;126.47;31.03;;;;;;;-4.39;95.08;101900.98;5023729;58;1141665;-82
2021/12/22 04:58:02;;;;;;;97.33;31.20;;;;;;;-4.16;95.74;101901.55;5010148;59;1143202;-81
2021/12/22 05:03:09;;;;;;;274.53;53.87;;;;;;;-4.03;95.68;101902.91;5013375;59;1141443;-80
2021/12/22 05:08:16;;;;;;;66.37;22.87;;;;;;;-3.99;95.29;101905.94;5013323;59;1143470;-80
2021/12/22 05:13:21;;;;;;;47.65;18.15;;;;;;;-4.09;94.97;101900.70;4933793;59;1141218;-83
2021/12/22 05:18:48;;;;;;;45.57;18.13;;;;;;;-4.19;95.11;101903.69;4821512;60;1141341;-78
2021/12/22 05:23:34;;;;;;;70.83;25.17;;;;;;;-4.23;95.51;101900.64;4978209;57;1141133;-75
2021/12/22 05:28:40;;;;;;;92.67;31.03;;;;;;;-4.22;95.42;101906.25;4973996;59;1141436;-75
2021/12/22 05:33:46;;;;;;;64.90;25.17;;;;;;;-4.22;95.58;101900.22;4973786;59;1141657;-80
2021/12/22 05:38:52;;;;;;;47.67;18.77;;;;;;;-4.28;95.49;101896.73;4973418;59;1141350;-75
2021/12/22 05:43:58;;;;;;;51.30;17.63;;;;;;;-4.41;95.34;101901.83;4973833;59;1141078;-77
2021/12/22 05:49:04;;;;;;;49.83;18.57;;;;;;;-4.44;95.37;101910.45;5045764;57;1141466;-79
2021/12/22 05:54:10;;;;;;;61.37;23.57;;;;;;;-4.47;95.35;101926.34;5072607;57;1141306;-79
2021/12/22 05:59:16;;;;;;;97.47;43.37;;;;;;;-4.54;95.37;101921.55;5078090;57;1141392;-76
2021/12/22 06:04:21;;;;;;;765.47;263.73;;;;;;;-4.57;95.54;101925.39;5078022;56;1141081;-76
2021/12/22 06:09:27;;;;;;;172.82;51.33;;;;;;;-4.60;95.95;101927.98;5077784;57;1145426;-80
2021/12/22 06:14:33;;;;;;;90.07;31.20;;;;;;;-4.51;96.55;101931.91;5077527;58;1143430;-76
2021/12/22 06:19:38;;;;;;;99.40;32.57;;;;;;;-4.42;96.50;101933.67;5119616;57;1141152;-78
2021/12/22 06:24:44;;;;;;;473.65;112.52;;;;;;;-4.37;96.48;101933.28;5131414;57;1141170;-75
2021/12/22 06:29:51;;;;;;;280.63;75.07;;;;;;;-4.42;96.01;101942.70;5131904;57;1145363;-77
2021/12/22 06:34:57;;;;;;;177.43;46.87;;;;;;;-4.44;96.51;101947.02;4975915;58;1143523;-77
2021/12/22 06:40:04;;;;;;;170.63;44.73;;;;;;;-4.25;97.60;101954.88;4975334;58;1143062;-79
2021/12/22 06:45:14;;;;;;;171.23;51.80;;;;;;;-4.06;97.54;101954.55;4974923;59;1143202;-76
2021/12/22 06:50:20;;;;;;;122.23;41.20;;;;;;;-4.07;96.52;101955.84;4971631;58;1143159;-79
2021/12/22 06:55:26;;;;;;;115.73;38.33;;;;;;;-4.18;95.97;101973.00;4874526;59;1143243;-79
2021/12/22 07:00:35;;;;;;;262.90;68.90;;;;;;;-4.38;96.30;101979.32;5046343;57;1143487;-80
2021/12/22 07:05:40;;;;;;;254.17;78.80;;;;;;;-4.38;96.30;101979.32;5046467;57;1143185;-77
2021/12/22 07:10:46;;;;;;;135.87;54.10;;;;;;;-4.25;97.44;101981.12;5044251;58;1143512;-77
2021/12/22 07:15:52;;;;;;;77.13;26.10;;;;;;;-4.10;97.70;101998.02;5018854;58;1143118;-79
2021/12/22 07:20:59;;;;;;;61.47;22.80;;;;;;;-4.12;97.46;101999.72;4896549;59;1139122;-78
2021/12/22 07:26:05;;;;;;;58.87;19.83;;;;;;;-4.19;97.88;102008.30;4966214;59;1139293;-77
2021/12/22 07:31:11;;;;;;;50.77;20.30;;;;;;;-4.31;98.64;102013.39;4966164;59;1139020;-82
2021/12/22 07:36:17;;;;;;;216.20;67.87;;;;;;;-4.40;99.92;102020.63;4966372;59;1138930;-78
2021/12/22 07:41:23;;;;;;;92.97;26.47;;;;;;;-4.42;100.00;102013.71;4966055;59;1141219;-78
2021/12/22 07:46:30;;;;;;;74.00;24.23;;;;;;;-4.33;100.00;102013.80;4977563;59;1141419;-75
2021/12/22 07:51:35;;;;;;;129.72;34.53;;;;;;;-4.30;100.00;102009.95;4986860;58;1141577;-77
2021/12/22 07:56:41;;;;;;;59.53;21.53;;;;;;;-4.27;100.00;102015.11;5130863;57;1143564;-75
2021/12/22 08:01:47;;;;;;;55.73;17.03;;;;;;;-4.28;100.00;102015.55;5135647;57;1141029;-73
2021/12/22 08:06:53;;;;;;;68.53;23.63;;;;;;;-4.25;100.00;102010.41;5095533;57;1141385;-72
2021/12/22 08:12:04;;;;;;;91.57;28.80;;;;;;;-4.17;100.00;102008.31;5033688;57;1141191;-72
2021/12/22 08:17:10;;;;;;;79.87;24.43;;;;;;;-4.08;100.00;102000.19;5026807;58;1141331;-74
2021/12/22 08:22:22;;;;;;;79.80;28.17;;;;;;;-3.96;100.00;102000.25;4896255;59;1141561;-74
2021/12/22 08:27:28;;;;;;;110.30;33.00;;;;;;;-3.86;100.00;101999.89;4883973;58;1141309;-75
2021/12/22 08:32:39;;;;;;;92.60;36.30;;;;;;;-3.76;100.00;102009.41;4866429;60;1141091;-74
2021/12/22 08:43:09;;;;;;;114.17;42.90;;;;;;;-3.56;100.00;102000.45;4931356;59;1145331;-72
2021/12/22 08:48:15;;;;;;;69.17;25.60;;;;;;;-3.50;100.00;101995.72;4974730;58;1145334;-72
2021/12/22 08:53:21;;;;;;;133.32;42.15;;;;;;;-3.42;100.00;101996.63;4919006;59;1143652;-72
2021/12/22 08:58:27;;;;;;;59.43;21.73;;;;;;;-3.38;100.00;101988.89;4920708;58;1145312;-71
2021/12/22 09:03:33;;;;;;;151.20;46.15;;;;;;;-3.31;100.00;101998.38;4945530;58;1143410;-72
2021/12/22 09:08:40;;;;;;;87.80;29.07;;;;;;;-3.27;100.00;101995.38;4929792;58;1145618;-72
2021/12/22 09:13:46;;;;;;;102.60;35.20;;;;;;;-3.20;100.00;101988.91;4866346;59;1143460;-72
2021/12/22 09:18:53;;;;;;;93.33;29.27;;;;;;;-3.16;100.00;101996.69;4946615;58;1145268;-73
2021/12/22 09:23:59;;;;;;;53.10;17.90;;;;;;;-3.12;100.00;101994.12;4846731;59;1143271;-72
2021/12/22 09:29:06;;;;;;;52.27;23.33;;;;;;;-3.07;100.00;102004.48;4962618;58;1143217;-71
2021/12/22 09:34:12;;;;;;;39.47;14.90;;;;;;;-3.05;100.00;102001.45;4906312;59;1143250;-71
2021/12/22 09:39:19;;;;;;;79.50;30.97;;;;;;;-3.02;100.00;102001.02;4919118;59;1143130;-72
2021/12/22 09:44:31;;;;;;;39.57;17.97;;;;;;;-2.96;100.00;102004.06;4840214;59;1142577;-72
2021/12/22 09:49:58;;;;;;;207.63;90.57;;;;;;;-2.92;100.00;101992.44;4902710;60;1143255;-71
2021/12/22 09:54:49;;;;;;;41.97;18.30;;;;;;;-2.87;100.00;102004.93;4902823;59;1145298;-70
2021/12/22 09:59:58;;;;;;;38.93;17.13;;;;;;;-2.81;100.00;101998.91;4969998;59;1143635;-71
2021/12/22 10:05:04;;;;;;;41.90;19.30;;;;;;;-2.80;100.00;101976.05;4969904;59;1143220;-71
2021/12/22 10:10:13;;;;;;;27.00;11.57;;;;;;;-2.71;100.00;101988.12;4941369;59;1143333;-73
2021/12/22 10:15:19;;;;;;;49.83;17.53;;;;;;;-2.66;100.00;101988.99;4898188;59;1143543;-71
2021/12/22 10:20:25;;;;;;;35.37;14.03;;;;;;;-2.66;100.00;101982.52;4896706;59;1143252;-74
2021/12/22 10:25:33;;;;;;;71.97;28.83;;;;;;;-2.60;100.00;101982.53;4894882;59;1143468;-72
2021/12/22 10:30:43;;;;;;;73.93;28.30;;;;;;;-2.52;100.00;101979.06;4895056;59;1143301;-72
2021/12/22 10:35:58;;;;;;;102.80;38.47;;;;;;;-2.40;100.00;101982.06;4894762;59;1143295;-72
2021/12/22 10:41:12;;;;;;;46.27;18.43;;;;;;;-2.32;100.00;101979.05;4894876;59;1145528;-71
2021/12/22 10:46:31;;;;;;;81.22;27.00;;;;;;;-2.26;100.00;101978.16;4897264;60;1143274;-72
2021/12/22 10:51:38;;;;;;;56.77;21.93;;;;;;;-2.19;100.00;101965.20;4898849;60;1141164;-72
2021/12/22 10:56:47;;;;;;;40.10;18.03;;;;;;;-2.13;100.00;101965.60;4961277;59;1141350;-71
2021/12/22 11:02:05;;;;;;;84.87;30.77;;;;;;;-2.07;100.00;101958.25;4961772;59;1141128;-74
2021/12/22 11:07:14;;;;;;;135.40;70.57;;;;;;;-2.04;100.00;101962.14;4960394;59;1141078;-75
2021/12/22 11:12:39;;;;;;;54.50;26.53;;;;;;;-2.02;100.00;101950.91;4961424;59;1143488;-75
2021/12/22 11:17:44;;;;;;;37.90;17.20;;;;;;;-1.98;100.00;101937.04;4961388;59;1141117;-74
2021/12/22 11:22:59;;;;;;;47.10;20.07;;;;;;;-1.95;100.00;101940.06;4961624;59;1141310;-74
2021/12/22 11:28:01;;;;;;;38.33;18.53;;;;;;;-1.96;100.00;101928.83;4961144;59;1141397;-73
2021/12/22 11:33:07;;;;;;;30.57;12.87;;;;;;;-1.92;100.00;101932.28;4961719;59;1141405;-75
2021/12/22 11:38:14;;;;;;;40.50;16.97;;;;;;;-1.90;100.00;101927.52;4918119;59;1141156;-76
2021/12/22 11:43:20;;;;;;;43.63;19.35;;;;;;;-1.90;100.00;101911.97;4961888;59;1139131;-76
2021/12/22 11:48:26;;;;;;;38.50;19.47;;;;;;;-1.90;100.00;101915.86;4945725;59;1139202;-76
2021/12/22 11:53:56;;;;;;;50.23;24.23;;;;;;;-1.85;100.00;101914.55;4962124;59;1143226;-75
2021/12/22 11:59:01;;;;;;;28.42;13.35;;;;;;;-1.78;100.00;101914.50;4978326;58;1143249;-75
2021/12/22 12:04:15;;;;;;;29.47;14.90;;;;;;;-1.74;100.00;101914.06;4902728;59;1143237;-74
2021/12/22 12:09:24;;;;;;;27.80;13.83;;;;;;;-1.74;100.00;101915.36;4895911;59;1143168;-75
2021/12/22 12:15:02;;;;;;;27.23;12.13;;;;;;;-1.67;100.00;101915.73;4921106;58;1143732;-73
2021/12/22 12:25:13;;;;;;;26.90;13.70;;;;;;;-1.58;100.00;101903.17;4849357;60;1143492;-74
2021/12/22 12:30:50;;;;;;;27.33;12.97;;;;;;;-1.57;100.00;101892.78;4853590;60;1143321;-74
2021/12/22 12:36:06;;;;;;;45.80;21.00;;;;;;;-1.55;100.00;101891.05;4905754;60;1143420;-75
2021/12/22 12:41:22;;;;;;;186.50;61.73;;;;;;;-1.52;100.00;101892.30;4866094;60;1143302;-74
2021/12/22 12:46:40;;;;;;;27.20;13.67;;;;;;;-1.45;100.00;101887.52;4956961;58;1145329;-74
2021/12/22 12:51:53;;;;;;;116.33;52.87;;;;;;;-1.47;100.00;101870.23;5065392;58;1143810;-75
2021/12/22 12:57:04;;;;;;;48.13;24.60;;;;;;;-1.43;100.00;101887.08;5065666;57;1145317;-75
2021/12/22 13:02:14;;;;;;;479.40;192.00;;;;;;;-1.40;100.00;101881.45;5056759;58;1141108;-74
2021/12/22 13:07:21;;;;;;;108.83;43.27;;;;;;;-1.39;100.00;101883.17;5063274;57;1145188;-73
2021/12/22 13:12:47;;;;;;;112.50;50.17;;;;;;;-1.43;100.00;101883.63;4989043;58;1143149;-74
2021/12/22 13:17:42;;;;;;;48.97;16.67;;;;;;;-1.47;100.00;101888.39;4977863;58;1143208;-74
2021/12/22 13:22:53;;;;;;;31.67;15.83;;;;;;;-1.47;100.00;101881.91;4985724;58;1141512;-74
2021/12/22 13:28:04;;;;;;;26.90;13.40;;;;;;;-1.51;100.00;101883.66;4984698;58;1141086;-75
2021/12/22 13:33:14;;;;;;;62.17;24.43;;;;;;;-1.51;100.00;101884.08;4980677;59;1141473;-74
2021/12/22 13:38:36;;;;;;;34.67;15.30;;;;;;;-1.49;100.00;101877.16;4974020;59;1141524;-74
2021/12/22 13:43:55;;;;;;;29.70;12.67;;;;;;;-1.50;100.00;101884.08;4951368;59;1139292;-74
2021/12/22 13:49:17;;;;;;;32.13;15.63;;;;;;;-1.47;100.00;101876.72;4939104;58;1143384;-74
2021/12/22 13:54:27;;;;;;;35.60;17.13;;;;;;;-1.47;100.00;101869.80;4915980;59;1143481;-75
2021/12/22 13:59:36;;;;;;;26.93;15.40;;;;;;;-1.42;100.00;101877.56;4960502;58;1143628;-75
2021/12/22 14:04:42;;;;;;;36.08;16.90;;;;;;;-1.42;100.00;101884.91;4927110;59;1143270;-75
2021/12/22 14:09:52;;;;;;;31.37;16.30;;;;;;;-1.39;100.00;101877.98;4890277;59;1143141;-75
2021/12/22 14:15:00;;;;;;;76.90;35.13;;;;;;;-1.42;100.00;101874.53;4921874;59;1142648;-75
2021/12/22 14:20:22;;;;;;;27.50;15.83;;;;;;;-1.43;100.00;101877.13;4934513;59;1143247;-75
2021/12/22 14:25:32;;;;;;;34.63;18.20;;;;;;;-1.43;100.00;101874.53;4963757;59;1143372;-76
2021/12/22 14:30:41;;;;;;;45.93;17.57;;;;;;;-1.47;100.00;101871.09;4963504;59;1143295;-75
2021/12/22 14:36:01;;;;;;;49.83;24.67;;;;;;;-1.47;100.00;101865.91;4963984;59;1143585;-75
2021/12/22 14:41:13;;;;;;;34.37;19.40;;;;;;;-1.49;100.00;101864.19;4963688;59;1143143;-75
2021/12/22 14:46:40;;;;;;;43.93;22.30;;;;;;;-1.49;100.00;101855.97;5016817;58;1143209;-75
2021/12/22 14:51:47;;;;;;;33.57;18.27;;;;;;;-1.49;100.00;101855.97;5066514;57;1143461;-76
2021/12/22 14:56:58;;;;;;;156.67;43.97;;;;;;;-1.50;100.00;101856.84;5026710;57;1143281;-75
2021/12/22 15:02:05;;;;;;;263.70;74.23;;;;;;;-1.51;100.00;101860.30;4963823;57;1145882;-75
2021/12/22 15:07:10;;;;;;;497.37;174.57;;;;;;;-1.53;100.00;101850.83;4963932;57;1145454;-75
2021/12/22 15:12:16;;;;;;;543.40;249.10;;;;;;;-1.52;100.00;101848.63;4964565;57;1147680;-75
2021/12/22 15:17:22;;;;;;;200.63;88.80;;;;;;;-1.52;100.00;101844.74;4964657;57;1147494;-75
2021/12/22 15:22:27;;;;;;;125.30;60.63;;;;;;;-1.55;100.00;101840.46;4958922;57;1145423;-75
2021/12/22 15:27:33;;;;;;;67.83;31.10;;;;;;;-1.52;100.00;101835.66;4922956;59;1143445;-75
2021/12/22 15:32:39;;;;;;;239.67;86.73;;;;;;;-1.46;100.00;101835.20;4898270;59;1141328;-75
2021/12/22 15:37:46;;;;;;;103.17;45.67;;;;;;;-1.38;100.00;101846.84;4921930;59;1143264;-75
2021/12/22 15:42:52;;;;;;;75.00;37.90;;;;;;;-1.33;100.00;101832.07;4927429;59;1143808;-75
2021/12/22 15:47:58;;;;;;;89.23;43.63;;;;;;;-1.33;100.00;101828.17;4892376;59;1141317;-75
2021/12/22 15:53:04;;;;;;;72.27;35.97;;;;;;;-1.35;100.00;101826.03;4876150;59;1141254;-76
2021/12/22 15:58:10;;;;;;;61.50;31.50;;;;;;;-1.37;100.00;101821.28;4875967;60;1141298;-75
2021/12/22 16:03:16;;;;;;;67.00;33.37;;;;;;;-1.42;100.00;101819.18;4875978;59;1141136;-76
2021/12/22 16:08:22;;;;;;;68.30;34.63;;;;;;;-1.42;100.00;101819.18;4876576;59;1141539;-75
2021/12/22 16:13:28;;;;;;;87.70;44.97;;;;;;;-1.42;100.00;101813.98;4949493;58;1141156;-76
2021/12/22 16:18:36;;;;;;;64.43;30.77;;;;;;;-1.44;100.00;101803.62;4949312;59;1141458;-75
2021/12/22 16:23:42;;;;;;;71.47;32.28;;;;;;;-1.38;100.00;101807.91;4911933;59;1141145;-75
2021/12/22 16:28:49;;;;;;;121.90;53.60;;;;;;;-1.30;100.00;101807.83;4939115;59;1141053;-75
2021/12/22 16:33:55;;;;;;;67.87;33.40;;;;;;;-1.32;100.00;101793.56;4906015;59;1143520;-75
2021/12/22 16:39:01;;;;;;;56.77;25.63;;;;;;;-1.26;100.00;101794.83;4922712;59;1141353;-75
2021/12/22 16:44:14;;;;;;;79.23;34.20;;;;;;;-1.27;100.00;101787.91;4909356;59;1141536;-75
2021/12/22 16:49:20;;;;;;;63.15;30.00;;;;;;;-1.29;100.00;101789.66;4886965;59;1139309;-76
2021/12/22 16:54:26;;;;;;;117.50;52.00;;;;;;;-1.33;100.00;101780.17;4808502;60;1139660;-76
2021/12/22 16:59:32;;;;;;;53.80;23.97;;;;;;;-1.34;100.00;101787.97;4825754;60;21184;-74
2021/12/22 17:04:38;;;;;;;133.83;46.47;;;;;;;-1.35;100.00;101791.42;4809662;59;1139006;-74
2021/12/22 17:09:44;;;;;;;141.07;56.33;;;;;;;-1.34;100.00;101786.66;4948403;58;1145421;-74
2021/12/22 17:14:49;;;;;;;288.97;90.23;;;;;;;-1.32;100.00;101783.19;5109396;57;1145283;-76
2021/12/22 17:19:55;;;;;;;240.10;84.80;;;;;;;-1.28;100.00;101768.46;5142725;57;1145178;-76
2021/12/22 17:25:01;;;;;;;87.97;39.93;;;;;;;-1.26;100.00;101767.58;5018641;58;1145353;-74
2021/12/22 17:30:11;;;;;;;85.87;39.20;;;;;;;-1.26;100.00;101762.83;5010902;58;1143190;-74
2021/12/22 17:35:18;;;;;;;65.07;31.27;;;;;;;-1.27;100.00;101755.47;4981304;58;1143496;-74
2021/12/22 17:40:27;;;;;;;69.63;34.90;;;;;;;-1.29;100.00;101744.68;5003186;58;1142641;-76
2021/12/22 17:45:32;;;;;;;81.60;41.13;;;;;;;-1.37;100.00;101739.98;4990757;57;1143166;-74
2021/12/22 17:50:39;;;;;;;75.33;33.57;;;;;;;-1.40;100.00;101739.59;5046195;57;1143302;-76
2021/12/22 17:55:45;;;;;;;85.67;40.17;;;;;;;-1.38;100.00;101740.45;4962067;58;1143242;-75
2021/12/22 18:00:52;;;;;;;74.20;31.87;;;;;;;-1.38;100.00;101745.64;5032712;57;1143236;-75
2021/12/22 18:06:09;;;;;;;54.00;25.07;;;;;;;-1.42;100.00;101740.05;4981293;58;1143417;-75
2021/12/22 18:11:06;;;;;;;262.00;104.23;;;;;;;-1.53;100.00;101731.50;4980333;58;1143096;-75
2021/12/22 18:16:12;;;;;;;280.07;118.27;;;;;;;-1.62;100.00;101725.94;4978649;58;1147480;-73
2021/12/22 18:21:18;;;;;;;264.60;73.27;;;;;;;-1.64;100.00;101722.92;4987553;59;1147348;-74
2021/12/22 18:26:24;;;;;;;288.90;79.17;;;;;;;-1.67;100.00;101721.64;4987402;57;1145299;-74
2021/12/22 18:31:30;;;;;;;395.83;107.77;;;;;;;-1.71;100.00;101718.24;4994159;58;1145256;-76
2021/12/22 18:36:38;;;;;;;283.30;77.83;;;;;;;-1.70;100.00;101706.14;5000636;57;1147552;-76
2021/12/22 18:41:43;;;;;;;233.60;62.55;;;;;;;-1.66;100.00;101712.56;5021482;57;1145295;-76
2021/12/22 18:46:49;;;;;;;273.37;69.63;;;;;;;-1.66;100.00;101708.67;4956064;58;1145229;-74
2021/12/22 18:51:54;;;;;;;301.63;71.13;;;;;;;-1.71;100.00;101707.87;5028550;57;1145419;-75
2021/12/22 18:57:00;;;;;;;381.87;91.13;;;;;;;-1.72;100.00;101711.33;5024192;58;1145294;-75
2021/12/22 19:02:06;;;;;;;211.63;61.60;;;;;;;-1.72;100.00;101707.87;5031560;57;1145304;-74
2021/12/22 19:07:12;;;;;;;221.73;63.83;;;;;;;-1.75;100.00;101706.60;5046519;57;1145305;-73
2021/12/22 19:12:17;;;;;;;301.90;72.77;;;;;;;-1.75;100.00;101702.27;5041364;57;1145276;-75
2021/12/22 19:17:25;;;;;;;170.60;47.20;;;;;;;-1.76;100.00;101692.77;4964903;58;1145265;-75
2021/12/22 19:22:31;;;;;;;150.40;44.83;;;;;;;-1.73;100.00;101691.89;4966301;58;1145280;-75
2021/12/22 19:27:38;;;;;;;183.80;63.53;;;;;;;-1.78;100.00;101685.00;5025805;57;1145487;-74
2021/12/22 19:32:43;;;;;;;129.93;44.97;;;;;;;-1.80;100.00;101678.10;5046319;57;1145198;-74
2021/12/22 19:37:49;;;;;;;129.03;37.53;;;;;;;-1.80;100.00;101675.51;5012316;59;1144763;-75
2021/12/22 19:42:55;;;;;;;49.67;22.00;;;;;;;-1.86;100.00;101657.00;5046482;57;1145135;-74
2021/12/22 19:48:01;;;;;;;42.40;19.53;;;;;;;-1.92;100.00;101661.36;5012523;59;1143338;-74
2021/12/22 19:53:13;;;;;;;56.90;25.60;;;;;;;-1.98;100.00;101656.21;5098749;57;1143156;-74
2021/12/22 19:58:15;;;;;;;48.83;24.10;;;;;;;-2.03;100.00;101658.86;4931717;60;1143455;-74
2021/12/22 20:03:22;;;;;;;48.35;22.73;;;;;;;-2.07;100.00;101655.00;4966106;58;1142534;-73
2021/12/22 20:08:28;;;;;;;42.27;17.20;;;;;;;-2.08;100.00;101646.36;4983404;57;1143218;-73
2021/12/22 20:13:40;;;;;;;86.90;24.50;;;;;;;-2.13;100.00;101649.41;4963189;59;1141196;-73
2021/12/22 20:18:41;;;;;;;151.70;40.97;;;;;;;-2.17;100.00;101642.12;4965496;59;1141341;-74
2021/12/22 20:23:48;;;;;;;132.97;32.48;;;;;;;-2.20;100.00;101642.57;5012392;59;1143260;-76
2021/12/22 20:28:56;;;;;;;106.67;35.90;;;;;;;-2.23;100.00;101638.27;5046471;57;1143218;-72
2021/12/22 20:34:01;;;;;;;96.47;36.90;;;;;;;-2.22;100.00;101637.83;5012460;59;1143184;-73
2021/12/22 20:39:08;;;;;;;87.65;32.58;;;;;;;-2.23;100.00;101635.67;5046399;57;1141112;-72
2021/12/22 20:44:13;;;;;;;77.53;30.60;;;;;;;-2.23;100.00;101639.56;4992188;58;1141195;-71
2021/12/22 20:49:19;;;;;;;87.20;30.97;;;;;;;-2.26;100.00;101636.13;5014534;58;1141560;-72
2021/12/22 20:54:25;;;;;;;130.30;43.50;;;;;;;-2.31;100.00;101634.89;5046366;57;1141376;-72
2021/12/22 20:59:31;;;;;;;74.63;29.00;;;;;;;-2.37;100.00;101632.76;5046284;57;1143293;-72
2021/12/22 21:04:36;;;;;;;77.80;24.80;;;;;;;-2.39;100.00;101630.61;4961046;58;1141100;-75
2021/12/22 21:09:42;;;;;;;90.40;33.60;;;;;;;-2.42;100.00;101631.92;4952824;58;1141268;-74
2021/12/22 21:14:48;;;;;;;72.27;26.27;;;;;;;-2.42;100.00;101638.39;4961713;57;1141379;-74
2021/12/22 21:19:54;;;;;;;68.57;27.97;;;;;;;-2.44;100.00;101628.04;4948697;58;1141112;-74
2021/12/22 21:24:59;;;;;;;71.57;28.13;;;;;;;-2.44;100.00;101622.86;4961523;58;1141125;-74
2021/12/22 21:30:07;;;;;;;59.20;24.40;;;;;;;-2.50;100.00;101614.72;4959694;57;1141164;-72
2021/12/22 21:35:13;;;;;;;61.97;27.00;;;;;;;-2.52;100.00;101603.50;4972548;58;1141080;-73
2021/12/22 21:40:21;;;;;;;55.67;24.93;;;;;;;-2.54;100.00;101603.08;4987812;58;1139541;-72
2021/12/22 21:45:27;;;;;;;56.97;27.07;;;;;;;-2.55;100.00;101600.06;5001959;58;1139283;-76
2021/12/22 21:50:35;;;;;;;54.97;25.27;;;;;;;-2.61;100.00;101589.77;4959059;58;1143186;-73
2021/12/22 21:55:40;;;;;;;53.43;24.53;;;;;;;-2.57;100.00;101592.73;4944472;59;1143144;-74
2021/12/22 22:00:48;;;;;;;51.57;23.47;;;;;;;-2.61;100.00;101588.04;4948908;58;1143515;-74
2021/12/22 22:05:54;;;;;;;52.37;22.17;;;;;;;-2.64;100.00;101580.72;4944423;59;1143502;-73
2021/12/22 22:11:00;;;;;;;45.20;17.50;;;;;;;-2.68;100.00;101584.19;4936278;59;1143459;-74
2021/12/22 22:16:06;;;;;;;62.33;26.63;;;;;;;-2.73;100.00;101579.03;4898343;60;1143685;-75
2021/12/22 22:21:12;;;;;;;50.50;21.43;;;;;;;-2.74;100.00;101579.89;5023800;59;1143124;-75
2021/12/22 22:26:18;;;;;;;44.30;18.13;;;;;;;-2.78;100.00;101572.18;4901602;59;1143537;-75
2021/12/22 22:31:23;;;;;;;56.60;24.80;;;;;;;-2.80;100.00;101564.42;5023722;59;1142769;-76
2021/12/22 22:36:29;;;;;;;52.57;22.00;;;;;;;-2.79;100.00;101557.52;4973409;58;1143077;-73
2021/12/22 22:41:35;;;;;;;51.43;21.57;;;;;;;-2.87;100.00;101543.31;4973325;58;1143135;-76
2021/12/22 22:46:41;;;;;;;51.53;22.57;;;;;;;-2.87;100.00;101543.31;4973362;58;1143243;-75
2021/12/22 22:51:46;;;;;;;55.90;23.73;;;;;;;-2.88;100.00;101537.27;4975545;58;1143219;-76
2021/12/22 22:56:52;;;;;;;51.87;21.77;;;;;;;-2.86;100.00;101533.38;4973598;58;1143165;-76